sensor_id;sensor_type;location;lat;lon;timestamp;temperature;humidity
3940;DHT22;1984;48.312;9.244;2023-05-16T00:00:49;8.60;99.90
3940;DHT22;1984;48.312;9.244;2023-05-16T00:03:18;8.60;99.90
3940;DHT22;1984;48.312;9.244;2023-05-16T00:05:43;8.60;99.90
3940;DHT22;1984;48.312;9.244;2023-05-16T00:08:10;8.60;99.90
3940;DHT22;1984;48.312;9.244;2023-05-16T00:10:35;8.70;99.90
3940;DHT22;1984;48.312;9.244;2023-05-16T00:13:02;8.70;99.90
3940;DHT22;1984;48.312;9.244;2023-05-16T00:15:28;8.80;99.90
3940;DHT22;1984;48.312;9.244;2023-05-16T00:17:54;8.80;99.90
3940;DHT22;1984;48.312;9.244;2023-05-16T00:20:24;8.70;99.90
3940;DHT22;1984;48.312;9.244;2023-05-16T00:22:50;8.80;99.90
3940;DHT22;1984;48.312;9.244;2023-05-16T00:25:17;8.80;99.90
3940;DHT22;1984;48.312;9.244;2023-05-16T00:27:42;8.80;99.90
3940;DHT22;1984;48.312;9.244;2023-05-16T00:30:08;8.80;99.90
3940;DHT22;1984;48.312;9.244;2023-05-16T00:32:35;8.80;99.90
3940;DHT22;1984;48.312;9.244;2023-05-16T00:35:01;8.80;99.90
3940;DHT22;1984;48.312;9.244;2023-05-16T00:37:26;8.80;99.90
3940;DHT22;1984;48.312;9.244;2023-05-16T00:39:52;8.80;99.90
3940;DHT22;1984;48.312;9.244;2023-05-16T00:42:20;8.90;99.90
3940;DHT22;1984;48.312;9.244;2023-05-16T00:44:46;8.90;99.90
3940;DHT22;1984;48.312;9.244;2023-05-16T00:47:12;8.90;99.90
3940;DHT22;1984;48.312;9.244;2023-05-16T00:49:38;9.00;99.90
3940;DHT22;1984;48.312;9.244;2023-05-16T00:52:04;9.00;99.90
3940;DHT22;1984;48.312;9.244;2023-05-16T00:54:30;9.00;99.90
3940;DHT22;1984;48.312;9.244;2023-05-16T00:56:56;9.00;99.90
3940;DHT22;1984;48.312;9.244;2023-05-16T00:59:25;9.00;99.90
3940;DHT22;1984;48.312;9.244;2023-05-16T01:01:51;9.00;99.90
3940;DHT22;1984;48.312;9.244;2023-05-16T01:04:17;8.90;99.90
3940;DHT22;1984;48.312;9.244;2023-05-16T01:06:44;8.70;99.90
3940;DHT22;1984;48.312;9.244;2023-05-16T01:09:10;8.70;99.90
3940;DHT22;1984;48.312;9.244;2023-05-16T01:11:53;8.80;99.90
3940;DHT22;1984;48.312;9.244;2023-05-16T01:17:20;8.80;99.90
3940;DHT22;1984;48.312;9.244;2023-05-16T01:20:27;8.80;99.90
3940;DHT22;1984;48.312;9.244;2023-05-16T01:26:07;8.70;99.90
3940;DHT22;1984;48.312;9.244;2023-05-16T01:28:34;8.80;99.90
3940;DHT22;1984;48.312;9.244;2023-05-16T01:31:00;8.80;99.90
3940;DHT22;1984;48.312;9.244;2023-05-16T01:33:25;8.90;99.90
3940;DHT22;1984;48.312;9.244;2023-05-16T01:35:59;8.90;99.90
3940;DHT22;1984;48.312;9.244;2023-05-16T01:38:59;8.90;99.90
3940;DHT22;1984;48.312;9.244;2023-05-16T01:41:50;9.00;99.90
3940;DHT22;1984;48.312;9.244;2023-05-16T01:44:45;9.00;99.90
3940;DHT22;1984;48.312;9.244;2023-05-16T01:47:16;8.90;99.90
3940;DHT22;1984;48.312;9.244;2023-05-16T01:50:00;8.70;99.90
3940;DHT22;1984;48.312;9.244;2023-05-16T01:55:02;8.50;99.90
3940;DHT22;1984;48.312;9.244;2023-05-16T01:57:29;8.50;99.90
3940;DHT22;1984;48.312;9.244;2023-05-16T01:59:56;8.60;99.90
3940;DHT22;1984;48.312;9.244;2023-05-16T02:02:23;8.60;99.90
3940;DHT22;1984;48.312;9.244;2023-05-16T02:04:49;8.70;99.90
3940;DHT22;1984;48.312;9.244;2023-05-16T02:07:15;8.70;99.90
3940;DHT22;1984;48.312;9.244;2023-05-16T02:09:40;8.70;99.90
3940;DHT22;1984;48.312;9.244;2023-05-16T02:12:06;8.70;99.90
3940;DHT22;1984;48.312;9.244;2023-05-16T02:14:32;8.80;99.90
3940;DHT22;1984;48.312;9.244;2023-05-16T02:16:58;8.80;99.90
3940;DHT22;1984;48.312;9.244;2023-05-16T02:19:23;8.80;99.90
3940;DHT22;1984;48.312;9.244;2023-05-16T02:21:49;8.80;99.90
3940;DHT22;1984;48.312;9.244;2023-05-16T02:24:15;8.90;99.90
3940;DHT22;1984;48.312;9.244;2023-05-16T02:26:40;8.90;99.90
3940;DHT22;1984;48.312;9.244;2023-05-16T02:29:06;8.80;99.90
3940;DHT22;1984;48.312;9.244;2023-05-16T02:31:32;8.80;99.90
3940;DHT22;1984;48.312;9.244;2023-05-16T02:33:59;8.70;99.90
3940;DHT22;1984;48.312;9.244;2023-05-16T02:36:26;8.60;99.90
3940;DHT22;1984;48.312;9.244;2023-05-16T02:38:51;8.60;99.90
3940;DHT22;1984;48.312;9.244;2023-05-16T02:41:17;8.70;99.90
3940;DHT22;1984;48.312;9.244;2023-05-16T02:43:43;8.70;99.90
3940;DHT22;1984;48.312;9.244;2023-05-16T02:46:30;8.80;99.90
3940;DHT22;1984;48.312;9.244;2023-05-16T02:48:56;8.80;99.90
3940;DHT22;1984;48.312;9.244;2023-05-16T02:51:24;8.90;99.90
3940;DHT22;1984;48.312;9.244;2023-05-16T02:53:50;8.90;99.90
3940;DHT22;1984;48.312;9.244;2023-05-16T02:56:16;8.90;99.90
3940;DHT22;1984;48.312;9.244;2023-05-16T02:58:43;8.90;99.90
3940;DHT22;1984;48.312;9.244;2023-05-16T03:01:09;8.90;99.90
3940;DHT22;1984;48.312;9.244;2023-05-16T03:03:35;9.00;99.90
3940;DHT22;1984;48.312;9.244;2023-05-16T03:06:01;9.00;99.90
3940;DHT22;1984;48.312;9.244;2023-05-16T03:08:27;9.00;99.90
3940;DHT22;1984;48.312;9.244;2023-05-16T03:10:53;9.00;99.90
3940;DHT22;1984;48.312;9.244;2023-05-16T03:13:18;9.10;99.90
3940;DHT22;1984;48.312;9.244;2023-05-16T03:15:44;9.10;99.90
3940;DHT22;1984;48.312;9.244;2023-05-16T03:18:10;9.10;99.90
3940;DHT22;1984;48.312;9.244;2023-05-16T03:20:36;9.20;99.90
3940;DHT22;1984;48.312;9.244;2023-05-16T03:23:02;9.20;99.90
3940;DHT22;1984;48.312;9.244;2023-05-16T03:25:32;9.20;99.90
3940;DHT22;1984;48.312;9.244;2023-05-16T03:27:57;9.30;99.90
3940;DHT22;1984;48.312;9.244;2023-05-16T03:30:23;9.40;99.90
3940;DHT22;1984;48.312;9.244;2023-05-16T03:32:48;9.40;99.90
3940;DHT22;1984;48.312;9.244;2023-05-16T03:35:14;9.40;99.90
3940;DHT22;1984;48.312;9.244;2023-05-16T03:37:40;9.50;99.90
3940;DHT22;1984;48.312;9.244;2023-05-16T03:40:06;9.50;99.90
3940;DHT22;1984;48.312;9.244;2023-05-16T03:42:32;9.60;99.90
3940;DHT22;1984;48.312;9.244;2023-05-16T03:44:58;9.70;99.90
3940;DHT22;1984;48.312;9.244;2023-05-16T03:47:23;9.70;99.90
3940;DHT22;1984;48.312;9.244;2023-05-16T03:49:49;9.70;99.90
3940;DHT22;1984;48.312;9.244;2023-05-16T03:52:14;9.70;99.90
3940;DHT22;1984;48.312;9.244;2023-05-16T03:54:40;9.80;99.90
3940;DHT22;1984;48.312;9.244;2023-05-16T03:57:06;9.80;99.90
3940;DHT22;1984;48.312;9.244;2023-05-16T03:59:31;9.80;99.90
3940;DHT22;1984;48.312;9.244;2023-05-16T04:01:58;9.80;99.90
3940;DHT22;1984;48.312;9.244;2023-05-16T04:04:24;9.80;99.90
3940;DHT22;1984;48.312;9.244;2023-05-16T04:06:50;9.80;99.90
3940;DHT22;1984;48.312;9.244;2023-05-16T04:09:15;9.90;99.90
3940;DHT22;1984;48.312;9.244;2023-05-16T04:11:41;9.90;99.90
3940;DHT22;1984;48.312;9.244;2023-05-16T04:14:07;9.90;99.90
3940;DHT22;1984;48.312;9.244;2023-05-16T04:16:33;9.90;99.90
3940;DHT22;1984;48.312;9.244;2023-05-16T04:18:58;9.90;99.90
3940;DHT22;1984;48.312;9.244;2023-05-16T04:21:24;9.90;99.90
3940;DHT22;1984;48.312;9.244;2023-05-16T04:23:49;9.90;99.90
3940;DHT22;1984;48.312;9.244;2023-05-16T04:26:15;9.90;99.90
3940;DHT22;1984;48.312;9.244;2023-05-16T04:28:40;9.90;99.90
3940;DHT22;1984;48.312;9.244;2023-05-16T04:31:06;9.90;99.90
3940;DHT22;1984;48.312;9.244;2023-05-16T04:33:32;9.90;99.90
3940;DHT22;1984;48.312;9.244;2023-05-16T04:35:58;9.90;99.90
3940;DHT22;1984;48.312;9.244;2023-05-16T04:38:24;9.90;99.90
3940;DHT22;1984;48.312;9.244;2023-05-16T04:40:50;9.90;99.90
3940;DHT22;1984;48.312;9.244;2023-05-16T04:43:16;9.90;99.90
3940;DHT22;1984;48.312;9.244;2023-05-16T04:45:42;10.00;99.90
3940;DHT22;1984;48.312;9.244;2023-05-16T04:48:07;10.00;99.90
3940;DHT22;1984;48.312;9.244;2023-05-16T04:50:33;9.90;99.90
3940;DHT22;1984;48.312;9.244;2023-05-16T04:52:58;9.90;99.90
3940;DHT22;1984;48.312;9.244;2023-05-16T04:55:24;9.90;99.90
3940;DHT22;1984;48.312;9.244;2023-05-16T04:57:50;10.00;99.90
3940;DHT22;1984;48.312;9.244;2023-05-16T05:00:16;10.00;99.90
3940;DHT22;1984;48.312;9.244;2023-05-16T05:02:41;10.00;99.90
3940;DHT22;1984;48.312;9.244;2023-05-16T05:05:08;10.00;99.90
3940;DHT22;1984;48.312;9.244;2023-05-16T05:07:34;10.00;99.90
3940;DHT22;1984;48.312;9.244;2023-05-16T05:09:59;10.10;99.90
3940;DHT22;1984;48.312;9.244;2023-05-16T05:12:25;10.10;99.90
3940;DHT22;1984;48.312;9.244;2023-05-16T05:14:52;10.00;99.90
3940;DHT22;1984;48.312;9.244;2023-05-16T05:17:19;10.00;99.90
3940;DHT22;1984;48.312;9.244;2023-05-16T05:19:45;10.00;99.90
3940;DHT22;1984;48.312;9.244;2023-05-16T05:22:11;10.10;99.90
3940;DHT22;1984;48.312;9.244;2023-05-16T05:24:36;10.10;99.90
3940;DHT22;1984;48.312;9.244;2023-05-16T05:27:02;10.20;99.90
3940;DHT22;1984;48.312;9.244;2023-05-16T05:29:28;10.20;99.90
3940;DHT22;1984;48.312;9.244;2023-05-16T05:31:54;10.20;99.90
3940;DHT22;1984;48.312;9.244;2023-05-16T05:34:19;10.30;99.90
3940;DHT22;1984;48.312;9.244;2023-05-16T05:36:45;10.30;99.90
3940;DHT22;1984;48.312;9.244;2023-05-16T05:39:11;10.30;99.90
3940;DHT22;1984;48.312;9.244;2023-05-16T05:41:37;10.30;99.90
3940;DHT22;1984;48.312;9.244;2023-05-16T05:44:02;10.30;99.90
3940;DHT22;1984;48.312;9.244;2023-05-16T05:46:28;10.30;99.90
3940;DHT22;1984;48.312;9.244;2023-05-16T05:48:54;10.40;99.90
3940;DHT22;1984;48.312;9.244;2023-05-16T05:51:20;10.40;99.90
3940;DHT22;1984;48.312;9.244;2023-05-16T05:53:46;10.50;99.90
3940;DHT22;1984;48.312;9.244;2023-05-16T05:56:11;10.50;99.90
3940;DHT22;1984;48.312;9.244;2023-05-16T05:58:38;10.50;99.90
3940;DHT22;1984;48.312;9.244;2023-05-16T06:01:06;10.60;99.90
3940;DHT22;1984;48.312;9.244;2023-05-16T06:03:31;10.60;99.90
3940;DHT22;1984;48.312;9.244;2023-05-16T06:05:57;10.60;99.90
3940;DHT22;1984;48.312;9.244;2023-05-16T06:08:22;10.60;99.90
3940;DHT22;1984;48.312;9.244;2023-05-16T06:10:48;10.60;99.90
3940;DHT22;1984;48.312;9.244;2023-05-16T06:13:13;10.60;99.90
3940;DHT22;1984;48.312;9.244;2023-05-16T06:15:39;10.60;99.90
3940;DHT22;1984;48.312;9.244;2023-05-16T06:18:05;10.60;99.90
3940;DHT22;1984;48.312;9.244;2023-05-16T06:20:30;10.60;99.90
3940;DHT22;1984;48.312;9.244;2023-05-16T06:22:56;10.60;99.90
3940;DHT22;1984;48.312;9.244;2023-05-16T06:25:21;10.60;99.90
3940;DHT22;1984;48.312;9.244;2023-05-16T06:27:47;10.60;99.90
3940;DHT22;1984;48.312;9.244;2023-05-16T06:30:12;10.50;99.90
3940;DHT22;1984;48.312;9.244;2023-05-16T06:32:38;10.50;99.90
3940;DHT22;1984;48.312;9.244;2023-05-16T06:35:05;10.50;99.90
3940;DHT22;1984;48.312;9.244;2023-05-16T06:37:31;10.50;99.90
3940;DHT22;1984;48.312;9.244;2023-05-16T06:39:57;10.50;99.90
3940;DHT22;1984;48.312;9.244;2023-05-16T06:42:23;10.60;99.90
3940;DHT22;1984;48.312;9.244;2023-05-16T06:44:49;10.60;99.90
3940;DHT22;1984;48.312;9.244;2023-05-16T06:47:15;10.50;99.90
3940;DHT22;1984;48.312;9.244;2023-05-16T06:49:40;10.50;99.90
3940;DHT22;1984;48.312;9.244;2023-05-16T06:52:05;10.40;99.90
3940;DHT22;1984;48.312;9.244;2023-05-16T06:54:31;10.40;99.90
3940;DHT22;1984;48.312;9.244;2023-05-16T06:56:56;10.30;99.90
3940;DHT22;1984;48.312;9.244;2023-05-16T06:59:22;10.30;99.90
3940;DHT22;1984;48.312;9.244;2023-05-16T07:01:48;10.30;99.90
3940;DHT22;1984;48.312;9.244;2023-05-16T07:04:13;10.20;99.90
3940;DHT22;1984;48.312;9.244;2023-05-16T07:06:39;10.20;99.90
3940;DHT22;1984;48.312;9.244;2023-05-16T07:09:05;10.20;99.90
3940;DHT22;1984;48.312;9.244;2023-05-16T07:11:31;10.20;99.90
3940;DHT22;1984;48.312;9.244;2023-05-16T07:13:57;10.20;99.90
3940;DHT22;1984;48.312;9.244;2023-05-16T07:16:22;10.20;99.90
3940;DHT22;1984;48.312;9.244;2023-05-16T07:18:48;10.10;99.90
3940;DHT22;1984;48.312;9.244;2023-05-16T07:21:14;10.20;99.90
3940;DHT22;1984;48.312;9.244;2023-05-16T07:23:39;10.10;99.90
3940;DHT22;1984;48.312;9.244;2023-05-16T07:26:05;10.10;99.90
3940;DHT22;1984;48.312;9.244;2023-05-16T07:28:31;10.10;99.90
3940;DHT22;1984;48.312;9.244;2023-05-16T07:30:56;10.10;99.90
3940;DHT22;1984;48.312;9.244;2023-05-16T07:33:23;10.10;99.90
3940;DHT22;1984;48.312;9.244;2023-05-16T07:35:49;10.00;99.90
3940;DHT22;1984;48.312;9.244;2023-05-16T07:38:15;10.00;99.90
3940;DHT22;1984;48.312;9.244;2023-05-16T07:40:41;10.10;99.90
3940;DHT22;1984;48.312;9.244;2023-05-16T07:43:06;10.10;99.90
3940;DHT22;1984;48.312;9.244;2023-05-16T07:45:32;10.10;99.90
3940;DHT22;1984;48.312;9.244;2023-05-16T07:47:58;10.10;99.90
3940;DHT22;1984;48.312;9.244;2023-05-16T07:50:24;10.10;99.90
3940;DHT22;1984;48.312;9.244;2023-05-16T07:52:50;10.10;99.90
3940;DHT22;1984;48.312;9.244;2023-05-16T07:55:16;10.00;99.90
3940;DHT22;1984;48.312;9.244;2023-05-16T07:57:41;10.00;99.90
3940;DHT22;1984;48.312;9.244;2023-05-16T08:00:08;10.00;99.90
3940;DHT22;1984;48.312;9.244;2023-05-16T08:02:34;10.10;99.90
3940;DHT22;1984;48.312;9.244;2023-05-16T08:05:00;10.10;99.90
3940;DHT22;1984;48.312;9.244;2023-05-16T08:07:25;10.10;99.90
3940;DHT22;1984;48.312;9.244;2023-05-16T08:09:51;10.10;99.90
3940;DHT22;1984;48.312;9.244;2023-05-16T08:12:17;10.10;99.90
3940;DHT22;1984;48.312;9.244;2023-05-16T08:14:43;10.10;99.90
3940;DHT22;1984;48.312;9.244;2023-05-16T08:17:08;10.20;99.90
3940;DHT22;1984;48.312;9.244;2023-05-16T08:19:34;10.20;99.90
3940;DHT22;1984;48.312;9.244;2023-05-16T08:22:00;10.20;99.90
3940;DHT22;1984;48.312;9.244;2023-05-16T08:24:25;10.30;99.90
3940;DHT22;1984;48.312;9.244;2023-05-16T08:26:51;10.30;99.90
3940;DHT22;1984;48.312;9.244;2023-05-16T08:29:16;10.40;99.90
3940;DHT22;1984;48.312;9.244;2023-05-16T08:31:42;10.50;99.90
3940;DHT22;1984;48.312;9.244;2023-05-16T08:34:08;10.50;99.90
3940;DHT22;1984;48.312;9.244;2023-05-16T08:36:35;10.50;99.90
3940;DHT22;1984;48.312;9.244;2023-05-16T08:39:01;10.40;99.90
3940;DHT22;1984;48.312;9.244;2023-05-16T08:41:26;10.40;99.90
3940;DHT22;1984;48.312;9.244;2023-05-16T08:43:52;10.30;99.90
3940;DHT22;1984;48.312;9.244;2023-05-16T08:46:21;10.30;99.90
3940;DHT22;1984;48.312;9.244;2023-05-16T08:48:52;10.30;99.90
3940;DHT22;1984;48.312;9.244;2023-05-16T08:51:19;10.30;99.90
3940;DHT22;1984;48.312;9.244;2023-05-16T08:53:53;10.30;99.90
3940;DHT22;1984;48.312;9.244;2023-05-16T08:56:21;10.30;99.90
3940;DHT22;1984;48.312;9.244;2023-05-16T08:58:49;10.30;99.90
3940;DHT22;1984;48.312;9.244;2023-05-16T09:01:16;10.30;99.90
3940;DHT22;1984;48.312;9.244;2023-05-16T09:03:41;10.30;99.90
3940;DHT22;1984;48.312;9.244;2023-05-16T09:06:07;10.30;99.90
3940;DHT22;1984;48.312;9.244;2023-05-16T09:08:33;10.30;99.90
3940;DHT22;1984;48.312;9.244;2023-05-16T09:11:00;10.30;99.90
3940;DHT22;1984;48.312;9.244;2023-05-16T09:13:26;10.20;99.90
3940;DHT22;1984;48.312;9.244;2023-05-16T09:16:08;10.20;99.90
3940;DHT22;1984;48.312;9.244;2023-05-16T09:18:34;10.20;99.90
3940;DHT22;1984;48.312;9.244;2023-05-16T09:21:00;10.20;99.90
3940;DHT22;1984;48.312;9.244;2023-05-16T09:23:26;10.20;99.90
3940;DHT22;1984;48.312;9.244;2023-05-16T09:25:52;10.10;99.90
3940;DHT22;1984;48.312;9.244;2023-05-16T09:28:18;10.00;99.90
3940;DHT22;1984;48.312;9.244;2023-05-16T09:30:45;10.00;99.90
3940;DHT22;1984;48.312;9.244;2023-05-16T09:33:11;9.90;99.90
3940;DHT22;1984;48.312;9.244;2023-05-16T09:35:37;9.90;99.90
3940;DHT22;1984;48.312;9.244;2023-05-16T09:38:03;10.00;99.90
3940;DHT22;1984;48.312;9.244;2023-05-16T09:40:28;9.90;99.90
3940;DHT22;1984;48.312;9.244;2023-05-16T09:43:06;10.00;99.90
3940;DHT22;1984;48.312;9.244;2023-05-16T09:45:33;10.00;99.90
3940;DHT22;1984;48.312;9.244;2023-05-16T09:48:07;10.00;99.90
3940;DHT22;1984;48.312;9.244;2023-05-16T09:50:33;10.00;99.90
3940;DHT22;1984;48.312;9.244;2023-05-16T09:53:00;10.10;99.90
3940;DHT22;1984;48.312;9.244;2023-05-16T09:55:26;10.10;99.90
3940;DHT22;1984;48.312;9.244;2023-05-16T09:57:51;10.20;99.90
3940;DHT22;1984;48.312;9.244;2023-05-16T10:00:17;10.20;99.90
3940;DHT22;1984;48.312;9.244;2023-05-16T10:02:43;10.20;99.90
3940;DHT22;1984;48.312;9.244;2023-05-16T10:05:09;10.30;99.90
3940;DHT22;1984;48.312;9.244;2023-05-16T10:07:36;10.30;99.90
3940;DHT22;1984;48.312;9.244;2023-05-16T10:10:05;10.40;99.90
3940;DHT22;1984;48.312;9.244;2023-05-16T10:12:32;10.40;99.90
3940;DHT22;1984;48.312;9.244;2023-05-16T10:15:00;10.40;99.90
3940;DHT22;1984;48.312;9.244;2023-05-16T10:17:29;10.30;99.90
3940;DHT22;1984;48.312;9.244;2023-05-16T10:19:57;10.30;99.90
3940;DHT22;1984;48.312;9.244;2023-05-16T10:22:24;10.30;99.90
3940;DHT22;1984;48.312;9.244;2023-05-16T10:25:07;10.30;99.90
3940;DHT22;1984;48.312;9.244;2023-05-16T10:27:33;10.30;99.90
3940;DHT22;1984;48.312;9.244;2023-05-16T10:30:01;10.40;99.90
3940;DHT22;1984;48.312;9.244;2023-05-16T10:32:26;10.50;99.90
3940;DHT22;1984;48.312;9.244;2023-05-16T10:34:53;10.50;99.90
3940;DHT22;1984;48.312;9.244;2023-05-16T10:37:21;10.60;99.90
3940;DHT22;1984;48.312;9.244;2023-05-16T10:39:47;10.70;99.90
3940;DHT22;1984;48.312;9.244;2023-05-16T10:42:13;10.80;99.90
3940;DHT22;1984;48.312;9.244;2023-05-16T10:44:42;10.90;99.90
3940;DHT22;1984;48.312;9.244;2023-05-16T10:47:08;10.80;99.90
3940;DHT22;1984;48.312;9.244;2023-05-16T10:49:33;10.90;99.90
3940;DHT22;1984;48.312;9.244;2023-05-16T10:54:49;11.00;99.90
3940;DHT22;1984;48.312;9.244;2023-05-16T10:57:18;11.00;99.90
3940;DHT22;1984;48.312;9.244;2023-05-16T10:59:49;11.20;99.90
3940;DHT22;1984;48.312;9.244;2023-05-16T11:02:31;11.40;99.90
3940;DHT22;1984;48.312;9.244;2023-05-16T11:05:00;11.60;99.90
3940;DHT22;1984;48.312;9.244;2023-05-16T11:07:31;11.80;99.90
3940;DHT22;1984;48.312;9.244;2023-05-16T11:10:07;11.90;99.90
3940;DHT22;1984;48.312;9.244;2023-05-16T11:12:45;11.90;99.90
3940;DHT22;1984;48.312;9.244;2023-05-16T11:15:24;12.00;99.90
3940;DHT22;1984;48.312;9.244;2023-05-16T11:18:03;12.00;99.90
3940;DHT22;1984;48.312;9.244;2023-05-16T11:20:32;12.00;99.90
3940;DHT22;1984;48.312;9.244;2023-05-16T11:23:18;12.20;99.90
3940;DHT22;1984;48.312;9.244;2023-05-16T11:28:38;12.30;99.90
3940;DHT22;1984;48.312;9.244;2023-05-16T11:31:04;12.40;99.90
3940;DHT22;1984;48.312;9.244;2023-05-16T11:33:31;12.60;99.90
3940;DHT22;1984;48.312;9.244;2023-05-16T11:38:30;12.80;99.90
3940;DHT22;1984;48.312;9.244;2023-05-16T11:41:04;13.00;99.90
3940;DHT22;1984;48.312;9.244;2023-05-16T11:43:43;13.20;99.90
3940;DHT22;1984;48.312;9.244;2023-05-16T11:46:13;13.50;99.90
3940;DHT22;1984;48.312;9.244;2023-05-16T11:48:39;13.60;99.90
3940;DHT22;1984;48.312;9.244;2023-05-16T11:51:06;13.90;99.90
3940;DHT22;1984;48.312;9.244;2023-05-16T11:53:32;13.90;99.90
3940;DHT22;1984;48.312;9.244;2023-05-16T11:55:59;13.90;99.90
3940;DHT22;1984;48.312;9.244;2023-05-16T11:58:27;13.90;99.90
3940;DHT22;1984;48.312;9.244;2023-05-16T12:00:53;14.00;99.90
3940;DHT22;1984;48.312;9.244;2023-05-16T12:03:20;14.10;99.90
3940;DHT22;1984;48.312;9.244;2023-05-16T12:05:52;14.20;99.90
3940;DHT22;1984;48.312;9.244;2023-05-16T12:08:19;14.20;99.90
3940;DHT22;1984;48.312;9.244;2023-05-16T12:10:48;14.10;99.90
3940;DHT22;1984;48.312;9.244;2023-05-16T12:13:15;14.00;99.90
3940;DHT22;1984;48.312;9.244;2023-05-16T12:15:42;13.90;99.90
3940;DHT22;1984;48.312;9.244;2023-05-16T12:18:08;13.90;99.90
3940;DHT22;1984;48.312;9.244;2023-05-16T12:20:35;13.80;99.90
3940;DHT22;1984;48.312;9.244;2023-05-16T12:23:01;14.00;99.90
3940;DHT22;1984;48.312;9.244;2023-05-16T12:25:33;13.90;99.90
3940;DHT22;1984;48.312;9.244;2023-05-16T12:28:06;13.90;99.90
3940;DHT22;1984;48.312;9.244;2023-05-16T12:30:33;13.90;99.90
3940;DHT22;1984;48.312;9.244;2023-05-16T12:33:17;13.80;99.90
3940;DHT22;1984;48.312;9.244;2023-05-16T12:35:44;13.60;99.90
3940;DHT22;1984;48.312;9.244;2023-05-16T12:38:13;13.30;99.90
3940;DHT22;1984;48.312;9.244;2023-05-16T12:40:42;13.10;99.90
3940;DHT22;1984;48.312;9.244;2023-05-16T12:43:21;12.80;99.90
3940;DHT22;1984;48.312;9.244;2023-05-16T12:45:55;12.70;99.90
3940;DHT22;1984;48.312;9.244;2023-05-16T12:48:23;12.60;99.90
3940;DHT22;1984;48.312;9.244;2023-05-16T12:50:49;12.60;99.90
3940;DHT22;1984;48.312;9.244;2023-05-16T12:53:19;12.50;99.90
3940;DHT22;1984;48.312;9.244;2023-05-16T12:55:45;12.40;99.90
3940;DHT22;1984;48.312;9.244;2023-05-16T12:58:11;12.50;99.90
3940;DHT22;1984;48.312;9.244;2023-05-16T13:00:37;12.40;99.90
3940;DHT22;1984;48.312;9.244;2023-05-16T13:03:04;12.40;99.90
3940;DHT22;1984;48.312;9.244;2023-05-16T13:05:29;12.40;99.90
3940;DHT22;1984;48.312;9.244;2023-05-16T13:07:55;12.30;99.90
3940;DHT22;1984;48.312;9.244;2023-05-16T13:10:21;12.10;99.90
3940;DHT22;1984;48.312;9.244;2023-05-16T13:12:46;12.00;99.90
3940;DHT22;1984;48.312;9.244;2023-05-16T13:15:12;11.90;99.90
3940;DHT22;1984;48.312;9.244;2023-05-16T13:17:38;11.70;99.90
3940;DHT22;1984;48.312;9.244;2023-05-16T13:20:05;11.50;99.90
3940;DHT22;1984;48.312;9.244;2023-05-16T13:22:35;11.40;99.90
3940;DHT22;1984;48.312;9.244;2023-05-16T13:25:01;11.20;99.90
3940;DHT22;1984;48.312;9.244;2023-05-16T13:27:26;11.00;99.90
3940;DHT22;1984;48.312;9.244;2023-05-16T13:29:52;10.90;99.90
3940;DHT22;1984;48.312;9.244;2023-05-16T13:32:17;10.80;99.90
3940;DHT22;1984;48.312;9.244;2023-05-16T13:34:43;10.70;99.90
3940;DHT22;1984;48.312;9.244;2023-05-16T13:37:09;10.60;99.90
3940;DHT22;1984;48.312;9.244;2023-05-16T13:39:34;10.50;99.90
3940;DHT22;1984;48.312;9.244;2023-05-16T13:42:00;10.50;99.90
3940;DHT22;1984;48.312;9.244;2023-05-16T13:44:27;10.50;99.90
3940;DHT22;1984;48.312;9.244;2023-05-16T13:46:53;10.50;99.90
3940;DHT22;1984;48.312;9.244;2023-05-16T13:49:18;10.60;99.90
3940;DHT22;1984;48.312;9.244;2023-05-16T13:51:44;10.60;99.90
3940;DHT22;1984;48.312;9.244;2023-05-16T13:54:09;10.60;99.90
3940;DHT22;1984;48.312;9.244;2023-05-16T13:56:35;10.60;99.90
3940;DHT22;1984;48.312;9.244;2023-05-16T13:59:01;10.60;99.90
3940;DHT22;1984;48.312;9.244;2023-05-16T14:01:26;10.60;99.90
3940;DHT22;1984;48.312;9.244;2023-05-16T14:03:52;10.60;99.90
3940;DHT22;1984;48.312;9.244;2023-05-16T14:06:17;10.60;99.90
3940;DHT22;1984;48.312;9.244;2023-05-16T14:08:43;10.50;99.90
3940;DHT22;1984;48.312;9.244;2023-05-16T14:11:08;10.50;99.90
3940;DHT22;1984;48.312;9.244;2023-05-16T14:13:34;10.50;99.90
3940;DHT22;1984;48.312;9.244;2023-05-16T14:16:00;10.50;99.90
3940;DHT22;1984;48.312;9.244;2023-05-16T14:18:26;10.50;99.90
3940;DHT22;1984;48.312;9.244;2023-05-16T14:20:52;10.40;99.90
3940;DHT22;1984;48.312;9.244;2023-05-16T14:23:20;10.40;99.90
3940;DHT22;1984;48.312;9.244;2023-05-16T14:25:46;10.40;99.90
3940;DHT22;1984;48.312;9.244;2023-05-16T14:28:11;10.40;99.90
3940;DHT22;1984;48.312;9.244;2023-05-16T14:30:37;10.30;99.90
3940;DHT22;1984;48.312;9.244;2023-05-16T14:33:02;10.40;99.90
3940;DHT22;1984;48.312;9.244;2023-05-16T14:35:28;10.40;99.90
3940;DHT22;1984;48.312;9.244;2023-05-16T14:37:53;10.40;99.90
3940;DHT22;1984;48.312;9.244;2023-05-16T14:40:19;10.40;99.90
3940;DHT22;1984;48.312;9.244;2023-05-16T14:42:46;10.30;99.90
3940;DHT22;1984;48.312;9.244;2023-05-16T14:45:11;10.20;99.90
3940;DHT22;1984;48.312;9.244;2023-05-16T14:47:37;10.10;99.90
3940;DHT22;1984;48.312;9.244;2023-05-16T14:50:03;10.00;99.90
3940;DHT22;1984;48.312;9.244;2023-05-16T14:52:28;10.00;99.90
3940;DHT22;1984;48.312;9.244;2023-05-16T14:54:54;9.90;99.90
3940;DHT22;1984;48.312;9.244;2023-05-16T14:57:19;9.90;99.90
3940;DHT22;1984;48.312;9.244;2023-05-16T14:59:45;9.90;99.90
3940;DHT22;1984;48.312;9.244;2023-05-16T15:02:12;9.90;99.90
3940;DHT22;1984;48.312;9.244;2023-05-16T15:04:38;9.80;99.90
3940;DHT22;1984;48.312;9.244;2023-05-16T15:07:03;9.80;99.90
3940;DHT22;1984;48.312;9.244;2023-05-16T15:09:30;9.80;99.90
3940;DHT22;1984;48.312;9.244;2023-05-16T15:11:55;9.80;99.90
3940;DHT22;1984;48.312;9.244;2023-05-16T15:14:21;9.70;99.90
3940;DHT22;1984;48.312;9.244;2023-05-16T15:16:46;9.70;99.90
3940;DHT22;1984;48.312;9.244;2023-05-16T15:19:12;9.60;99.90
3940;DHT22;1984;48.312;9.244;2023-05-16T15:21:37;9.60;99.90
3940;DHT22;1984;48.312;9.244;2023-05-16T15:24:03;9.60;99.90
3940;DHT22;1984;48.312;9.244;2023-05-16T15:26:29;9.50;99.90
3940;DHT22;1984;48.312;9.244;2023-05-16T15:28:55;9.50;99.90
3940;DHT22;1984;48.312;9.244;2023-05-16T15:31:21;9.40;99.90
3940;DHT22;1984;48.312;9.244;2023-05-16T15:33:46;9.40;99.90
3940;DHT22;1984;48.312;9.244;2023-05-16T15:36:12;9.50;99.90
3940;DHT22;1984;48.312;9.244;2023-05-16T15:38:38;9.50;99.90
3940;DHT22;1984;48.312;9.244;2023-05-16T15:41:08;9.40;99.90
3940;DHT22;1984;48.312;9.244;2023-05-16T15:43:34;9.40;99.90
3940;DHT22;1984;48.312;9.244;2023-05-16T15:45:59;9.40;99.90
3940;DHT22;1984;48.312;9.244;2023-05-16T15:48:25;9.40;99.90
3940;DHT22;1984;48.312;9.244;2023-05-16T15:50:51;9.40;99.90
3940;DHT22;1984;48.312;9.244;2023-05-16T15:53:17;9.40;99.90
3940;DHT22;1984;48.312;9.244;2023-05-16T15:55:42;9.30;99.90
3940;DHT22;1984;48.312;9.244;2023-05-16T15:58:08;9.30;99.90
3940;DHT22;1984;48.312;9.244;2023-05-16T16:00:33;9.30;99.90
3940;DHT22;1984;48.312;9.244;2023-05-16T16:02:59;9.30;99.90
3940;DHT22;1984;48.312;9.244;2023-05-16T16:05:25;9.30;99.90
3940;DHT22;1984;48.312;9.244;2023-05-16T16:07:50;9.30;99.90
3940;DHT22;1984;48.312;9.244;2023-05-16T16:10:16;9.30;99.90
3940;DHT22;1984;48.312;9.244;2023-05-16T16:12:41;9.30;99.90
3940;DHT22;1984;48.312;9.244;2023-05-16T16:15:09;9.30;99.90
3940;DHT22;1984;48.312;9.244;2023-05-16T16:17:34;9.30;99.90
3940;DHT22;1984;48.312;9.244;2023-05-16T16:20:00;9.30;99.90
3940;DHT22;1984;48.312;9.244;2023-05-16T16:22:26;9.30;99.90